sensor_id;sensor_type;location;lat;lon;timestamp;P1;durP1;ratioP1;P2;durP2;ratioP2
76296;SDS011;65104;52.994;6.552;2023-07-08T00:00:25;3.67;;;2.17;;
76296;SDS011;65104;52.994;6.552;2023-07-08T00:02:51;5.53;;;2.75;;
76296;SDS011;65104;52.994;6.552;2023-07-08T00:05:18;4.20;;;2.30;;
76296;SDS011;65104;52.994;6.552;2023-07-08T00:07:45;3.97;;;2.78;;
76296;SDS011;65104;52.994;6.552;2023-07-08T00:10:12;6.30;;;3.35;;
76296;SDS011;65104;52.994;6.552;2023-07-08T00:12:41;4.75;;;2.60;;
76296;SDS011;65104;52.994;6.552;2023-07-08T00:15:08;4.53;;;2.60;;
76296;SDS011;65104;52.994;6.552;2023-07-08T00:17:35;4.40;;;2.33;;
76296;SDS011;65104;52.994;6.552;2023-07-08T00:20:01;3.65;;;2.83;;
76296;SDS011;65104;52.994;6.552;2023-07-08T00:22:26;4.80;;;2.20;;
76296;SDS011;65104;52.994;6.552;2023-07-08T00:24:51;5.18;;;2.92;;
76296;SDS011;65104;52.994;6.552;2023-07-08T00:27:18;4.15;;;2.50;;
76296;SDS011;65104;52.994;6.552;2023-07-08T00:29:44;4.28;;;2.65;;
76296;SDS011;65104;52.994;6.552;2023-07-08T00:32:10;4.50;;;2.40;;
76296;SDS011;65104;52.994;6.552;2023-07-08T00:34:37;3.10;;;2.30;;
76296;SDS011;65104;52.994;6.552;2023-07-08T00:37:03;2.80;;;2.03;;
76296;SDS011;65104;52.994;6.552;2023-07-08T00:39:30;5.53;;;2.45;;
76296;SDS011;65104;52.994;6.552;2023-07-08T00:41:59;4.72;;;2.65;;
76296;SDS011;65104;52.994;6.552;2023-07-08T00:44:26;4.10;;;2.60;;
76296;SDS011;65104;52.994;6.552;2023-07-08T00:49:24;3.22;;;2.53;;
76296;SDS011;65104;52.994;6.552;2023-07-08T00:52:13;4.57;;;2.88;;
76296;SDS011;65104;52.994;6.552;2023-07-08T00:54:41;5.80;;;2.55;;
76296;SDS011;65104;52.994;6.552;2023-07-08T00:57:07;4.60;;;2.50;;
76296;SDS011;65104;52.994;6.552;2023-07-08T00:59:33;5.45;;;2.78;;
76296;SDS011;65104;52.994;6.552;2023-07-08T01:02:03;3.85;;;2.47;;
76296;SDS011;65104;52.994;6.552;2023-07-08T01:04:38;5.25;;;2.67;;
76296;SDS011;65104;52.994;6.552;2023-07-08T01:07:09;3.92;;;3.00;;
76296;SDS011;65104;52.994;6.552;2023-07-08T01:09:37;2.55;;;2.35;;
76296;SDS011;65104;52.994;6.552;2023-07-08T01:12:08;5.22;;;2.75;;
76296;SDS011;65104;52.994;6.552;2023-07-08T01:14:36;7.47;;;3.15;;
76296;SDS011;65104;52.994;6.552;2023-07-08T01:17:07;4.45;;;2.88;;
76296;SDS011;65104;52.994;6.552;2023-07-08T01:19:32;3.72;;;2.55;;
76296;SDS011;65104;52.994;6.552;2023-07-08T01:21:59;4.90;;;3.08;;
76296;SDS011;65104;52.994;6.552;2023-07-08T01:26:51;4.60;;;3.00;;
76296;SDS011;65104;52.994;6.552;2023-07-08T01:29:16;4.32;;;2.85;;
76296;SDS011;65104;52.994;6.552;2023-07-08T01:31:42;4.50;;;2.85;;
76296;SDS011;65104;52.994;6.552;2023-07-08T01:34:13;5.72;;;2.75;;
76296;SDS011;65104;52.994;6.552;2023-07-08T01:36:44;4.53;;;2.70;;
76296;SDS011;65104;52.994;6.552;2023-07-08T01:39:14;3.33;;;2.67;;
76296;SDS011;65104;52.994;6.552;2023-07-08T01:41:43;3.63;;;2.45;;
76296;SDS011;65104;52.994;6.552;2023-07-08T01:47:11;5.60;;;3.05;;
76296;SDS011;65104;52.994;6.552;2023-07-08T01:49:44;4.38;;;2.83;;
76296;SDS011;65104;52.994;6.552;2023-07-08T01:52:12;4.22;;;2.88;;
76296;SDS011;65104;52.994;6.552;2023-07-08T01:54:39;4.25;;;2.67;;
76296;SDS011;65104;52.994;6.552;2023-07-08T01:57:04;4.15;;;2.92;;
76296;SDS011;65104;52.994;6.552;2023-07-08T01:59:29;4.43;;;2.67;;
76296;SDS011;65104;52.994;6.552;2023-07-08T02:01:55;4.45;;;2.78;;
76296;SDS011;65104;52.994;6.552;2023-07-08T02:04:21;4.35;;;2.78;;
76296;SDS011;65104;52.994;6.552;2023-07-08T02:09:19;5.25;;;2.88;;
76296;SDS011;65104;52.994;6.552;2023-07-08T02:11:45;4.13;;;2.85;;
76296;SDS011;65104;52.994;6.552;2023-07-08T02:14:10;6.13;;;3.80;;
76296;SDS011;65104;52.994;6.552;2023-07-08T02:16:36;3.33;;;2.75;;
76296;SDS011;65104;52.994;6.552;2023-07-08T02:19:01;5.68;;;3.03;;
76296;SDS011;65104;52.994;6.552;2023-07-08T02:21:26;5.28;;;2.78;;
76296;SDS011;65104;52.994;6.552;2023-07-08T02:23:55;5.97;;;2.65;;
76296;SDS011;65104;52.994;6.552;2023-07-08T02:26:22;3.55;;;2.58;;
76296;SDS011;65104;52.994;6.552;2023-07-08T02:28:48;7.07;;;2.90;;
76296;SDS011;65104;52.994;6.552;2023-07-08T02:31:13;4.88;;;3.00;;
76296;SDS011;65104;52.994;6.552;2023-07-08T02:33:38;7.32;;;3.20;;
76296;SDS011;65104;52.994;6.552;2023-07-08T02:36:04;5.05;;;3.65;;
76296;SDS011;65104;52.994;6.552;2023-07-08T02:38:29;5.38;;;3.75;;
76296;SDS011;65104;52.994;6.552;2023-07-08T02:40:55;5.35;;;3.33;;
76296;SDS011;65104;52.994;6.552;2023-07-08T02:43:21;6.20;;;3.15;;
76296;SDS011;65104;52.994;6.552;2023-07-08T02:45:48;4.38;;;3.17;;
76296;SDS011;65104;52.994;6.552;2023-07-08T02:48:17;5.60;;;3.15;;
76296;SDS011;65104;52.994;6.552;2023-07-08T02:50:43;4.93;;;3.15;;
76296;SDS011;65104;52.994;6.552;2023-07-08T02:53:09;6.60;;;2.78;;
76296;SDS011;65104;52.994;6.552;2023-07-08T02:55:34;6.15;;;3.85;;
76296;SDS011;65104;52.994;6.552;2023-07-08T02:57:59;6.35;;;3.30;;
76296;SDS011;65104;52.994;6.552;2023-07-08T03:00:25;5.40;;;3.55;;
76296;SDS011;65104;52.994;6.552;2023-07-08T03:02:50;5.70;;;3.28;;
76296;SDS011;65104;52.994;6.552;2023-07-08T03:05:16;5.28;;;3.08;;
76296;SDS011;65104;52.994;6.552;2023-07-08T03:07:41;4.10;;;3.30;;
76296;SDS011;65104;52.994;6.552;2023-07-08T03:10:07;4.93;;;3.33;;
76296;SDS011;65104;52.994;6.552;2023-07-08T03:12:32;6.20;;;3.40;;
76296;SDS011;65104;52.994;6.552;2023-07-08T03:14:58;5.80;;;3.85;;
76296;SDS011;65104;52.994;6.552;2023-07-08T03:17:23;5.50;;;3.40;;
76296;SDS011;65104;52.994;6.552;2023-07-08T03:19:48;5.18;;;3.20;;
76296;SDS011;65104;52.994;6.552;2023-07-08T03:22:14;4.45;;;3.60;;
76296;SDS011;65104;52.994;6.552;2023-07-08T03:24:39;4.45;;;3.15;;
76296;SDS011;65104;52.994;6.552;2023-07-08T03:27:10;5.95;;;3.47;;
76296;SDS011;65104;52.994;6.552;2023-07-08T03:29:39;5.28;;;3.47;;
76296;SDS011;65104;52.994;6.552;2023-07-08T03:32:10;5.85;;;3.70;;
76296;SDS011;65104;52.994;6.552;2023-07-08T03:34:36;5.65;;;3.38;;
76296;SDS011;65104;52.994;6.552;2023-07-08T03:37:02;5.75;;;3.50;;
76296;SDS011;65104;52.994;6.552;2023-07-08T03:39:28;6.45;;;3.60;;
76296;SDS011;65104;52.994;6.552;2023-07-08T03:41:55;6.30;;;3.72;;
76296;SDS011;65104;52.994;6.552;2023-07-08T03:44:20;5.63;;;3.20;;
76296;SDS011;65104;52.994;6.552;2023-07-08T03:46:47;5.78;;;3.58;;
76296;SDS011;65104;52.994;6.552;2023-07-08T03:49:17;5.85;;;3.95;;
76296;SDS011;65104;52.994;6.552;2023-07-08T03:51:50;7.28;;;3.60;;
76296;SDS011;65104;52.994;6.552;2023-07-08T03:54:19;5.82;;;3.97;;
76296;SDS011;65104;52.994;6.552;2023-07-08T03:56:46;6.55;;;4.28;;
76296;SDS011;65104;52.994;6.552;2023-07-08T03:59:11;7.38;;;3.58;;
76296;SDS011;65104;52.994;6.552;2023-07-08T04:01:37;4.60;;;3.67;;
76296;SDS011;65104;52.994;6.552;2023-07-08T04:04:06;5.35;;;3.85;;
76296;SDS011;65104;52.994;6.552;2023-07-08T04:06:33;5.13;;;3.53;;
76296;SDS011;65104;52.994;6.552;2023-07-08T04:08:59;5.78;;;3.70;;
76296;SDS011;65104;52.994;6.552;2023-07-08T04:11:25;7.82;;;3.67;;
76296;SDS011;65104;52.994;6.552;2023-07-08T04:13:51;6.45;;;3.95;;
76296;SDS011;65104;52.994;6.552;2023-07-08T04:16:21;5.75;;;3.92;;
76296;SDS011;65104;52.994;6.552;2023-07-08T04:18:53;8.15;;;4.07;;
76296;SDS011;65104;52.994;6.552;2023-07-08T04:21:20;6.40;;;4.03;;
76296;SDS011;65104;52.994;6.552;2023-07-08T04:23:46;12.50;;;3.88;;
76296;SDS011;65104;52.994;6.552;2023-07-08T04:26:12;5.55;;;3.80;;
76296;SDS011;65104;52.994;6.552;2023-07-08T04:28:37;5.30;;;3.50;;
76296;SDS011;65104;52.994;6.552;2023-07-08T04:31:03;6.18;;;3.65;;
76296;SDS011;65104;52.994;6.552;2023-07-08T04:33:29;5.15;;;3.42;;
76296;SDS011;65104;52.994;6.552;2023-07-08T04:35:55;5.43;;;3.30;;
76296;SDS011;65104;52.994;6.552;2023-07-08T04:38:21;7.43;;;3.88;;
76296;SDS011;65104;52.994;6.552;2023-07-08T04:40:50;5.20;;;3.47;;
76296;SDS011;65104;52.994;6.552;2023-07-08T04:43:17;7.28;;;4.10;;
76296;SDS011;65104;52.994;6.552;2023-07-08T04:45:44;4.03;;;3.53;;
76296;SDS011;65104;52.994;6.552;2023-07-08T04:48:15;6.00;;;3.38;;
76296;SDS011;65104;52.994;6.552;2023-07-08T04:50:44;5.50;;;3.95;;
76296;SDS011;65104;52.994;6.552;2023-07-08T04:55:37;5.45;;;3.90;;
76296;SDS011;65104;52.994;6.552;2023-07-08T04:58:11;6.68;;;3.85;;
76296;SDS011;65104;52.994;6.552;2023-07-08T05:00:37;5.32;;;4.22;;
76296;SDS011;65104;52.994;6.552;2023-07-08T05:03:02;6.40;;;3.75;;
76296;SDS011;65104;52.994;6.552;2023-07-08T05:05:28;5.00;;;3.30;;
76296;SDS011;65104;52.994;6.552;2023-07-08T05:07:53;5.63;;;3.80;;
76296;SDS011;65104;52.994;6.552;2023-07-08T05:10:18;7.47;;;4.80;;
76296;SDS011;65104;52.994;6.552;2023-07-08T05:12:45;8.68;;;4.65;;
76296;SDS011;65104;52.994;6.552;2023-07-08T05:15:10;4.80;;;3.97;;
76296;SDS011;65104;52.994;6.552;2023-07-08T05:17:37;6.15;;;4.22;;
76296;SDS011;65104;52.994;6.552;2023-07-08T05:20:03;5.30;;;3.95;;
76296;SDS011;65104;52.994;6.552;2023-07-08T05:22:29;6.05;;;3.92;;
76296;SDS011;65104;52.994;6.552;2023-07-08T05:24:54;5.03;;;3.75;;
76296;SDS011;65104;52.994;6.552;2023-07-08T05:27:21;7.38;;;4.20;;
76296;SDS011;65104;52.994;6.552;2023-07-08T05:29:48;6.20;;;4.05;;
76296;SDS011;65104;52.994;6.552;2023-07-08T05:32:13;4.53;;;3.20;;
76296;SDS011;65104;52.994;6.552;2023-07-08T05:34:39;5.93;;;4.05;;
76296;SDS011;65104;52.994;6.552;2023-07-08T05:37:04;4.35;;;3.63;;
76296;SDS011;65104;52.994;6.552;2023-07-08T05:39:30;5.63;;;3.65;;
76296;SDS011;65104;52.994;6.552;2023-07-08T05:41:56;4.22;;;3.75;;
76296;SDS011;65104;52.994;6.552;2023-07-08T05:44:22;5.20;;;3.63;;
76296;SDS011;65104;52.994;6.552;2023-07-08T05:46:48;6.68;;;3.67;;
76296;SDS011;65104;52.994;6.552;2023-07-08T05:49:14;4.38;;;3.40;;
76296;SDS011;65104;52.994;6.552;2023-07-08T05:51:40;6.28;;;3.78;;
76296;SDS011;65104;52.994;6.552;2023-07-08T05:54:05;5.53;;;4.18;;
76296;SDS011;65104;52.994;6.552;2023-07-08T05:56:31;5.25;;;3.72;;
76296;SDS011;65104;52.994;6.552;2023-07-08T05:58:56;4.35;;;3.38;;
76296;SDS011;65104;52.994;6.552;2023-07-08T06:01:22;4.50;;;3.13;;
76296;SDS011;65104;52.994;6.552;2023-07-08T06:03:47;4.38;;;3.20;;
76296;SDS011;65104;52.994;6.552;2023-07-08T06:06:13;5.97;;;3.50;;
76296;SDS011;65104;52.994;6.552;2023-07-08T06:08:38;5.00;;;3.63;;
76296;SDS011;65104;52.994;6.552;2023-07-08T06:11:04;5.28;;;3.45;;
76296;SDS011;65104;52.994;6.552;2023-07-08T06:13:29;4.78;;;3.72;;
76296;SDS011;65104;52.994;6.552;2023-07-08T06:15:55;5.22;;;3.20;;
76296;SDS011;65104;52.994;6.552;2023-07-08T06:18:20;5.03;;;3.10;;
76296;SDS011;65104;52.994;6.552;2023-07-08T06:20:53;3.92;;;3.08;;
76296;SDS011;65104;52.994;6.552;2023-07-08T06:23:22;3.92;;;3.13;;
76296;SDS011;65104;52.994;6.552;2023-07-08T06:25:48;5.05;;;3.13;;
76296;SDS011;65104;52.994;6.552;2023-07-08T06:28:13;4.22;;;3.40;;
76296;SDS011;65104;52.994;6.552;2023-07-08T06:30:39;3.53;;;3.03;;
76296;SDS011;65104;52.994;6.552;2023-07-08T06:33:04;3.55;;;2.65;;
76296;SDS011;65104;52.994;6.552;2023-07-08T06:35:30;4.20;;;3.05;;
76296;SDS011;65104;52.994;6.552;2023-07-08T06:37:55;3.97;;;3.33;;
76296;SDS011;65104;52.994;6.552;2023-07-08T06:40:20;4.03;;;2.90;;
76296;SDS011;65104;52.994;6.552;2023-07-08T06:42:46;6.35;;;3.05;;
76296;SDS011;65104;52.994;6.552;2023-07-08T06:45:11;4.13;;;2.70;;
76296;SDS011;65104;52.994;6.552;2023-07-08T06:47:37;5.20;;;3.42;;
76296;SDS011;65104;52.994;6.552;2023-07-08T06:50:02;3.88;;;2.80;;
76296;SDS011;65104;52.994;6.552;2023-07-08T06:52:28;3.42;;;2.40;;
76296;SDS011;65104;52.994;6.552;2023-07-08T06:54:59;4.43;;;3.03;;
76296;SDS011;65104;52.994;6.552;2023-07-08T06:57:28;3.58;;;2.45;;
76296;SDS011;65104;52.994;6.552;2023-07-08T06:59:54;3.22;;;2.78;;
76296;SDS011;65104;52.994;6.552;2023-07-08T07:02:19;4.32;;;3.13;;
76296;SDS011;65104;52.994;6.552;2023-07-08T07:04:45;3.47;;;2.42;;
76296;SDS011;65104;52.994;6.552;2023-07-08T07:07:10;3.40;;;2.33;;
76296;SDS011;65104;52.994;6.552;2023-07-08T07:09:36;5.80;;;2.67;;
76296;SDS011;65104;52.994;6.552;2023-07-08T07:12:01;4.18;;;2.83;;
76296;SDS011;65104;52.994;6.552;2023-07-08T07:14:27;3.03;;;2.38;;
76296;SDS011;65104;52.994;6.552;2023-07-08T07:16:52;4.07;;;2.78;;
76296;SDS011;65104;52.994;6.552;2023-07-08T07:19:17;5.97;;;2.72;;
76296;SDS011;65104;52.994;6.552;2023-07-08T07:21:43;3.15;;;2.58;;
76296;SDS011;65104;52.994;6.552;2023-07-08T07:24:08;6.13;;;2.40;;
76296;SDS011;65104;52.994;6.552;2023-07-08T07:26:33;3.53;;;2.78;;
76296;SDS011;65104;52.994;6.552;2023-07-08T07:29:00;4.60;;;2.53;;
76296;SDS011;65104;52.994;6.552;2023-07-08T07:31:26;4.40;;;2.60;;
76296;SDS011;65104;52.994;6.552;2023-07-08T07:33:52;3.83;;;2.47;;
76296;SDS011;65104;52.994;6.552;2023-07-08T07:36:17;3.58;;;2.85;;
76296;SDS011;65104;52.994;6.552;2023-07-08T07:38:42;4.13;;;2.80;;
76296;SDS011;65104;52.994;6.552;2023-07-08T07:41:08;3.88;;;2.70;;
76296;SDS011;65104;52.994;6.552;2023-07-08T07:43:35;3.60;;;2.35;;
76296;SDS011;65104;52.994;6.552;2023-07-08T07:46:01;3.38;;;2.38;;
76296;SDS011;65104;52.994;6.552;2023-07-08T07:48:27;2.05;;;1.95;;
76296;SDS011;65104;52.994;6.552;2023-07-08T07:50:53;3.35;;;2.33;;
76296;SDS011;65104;52.994;6.552;2023-07-08T07:53:18;2.95;;;2.13;;
76296;SDS011;65104;52.994;6.552;2023-07-08T07:55:44;2.88;;;2.25;;
76296;SDS011;65104;52.994;6.552;2023-07-08T07:58:09;3.60;;;2.58;;
76296;SDS011;65104;52.994;6.552;2023-07-08T08:05:27;3.97;;;2.50;;
76296;SDS011;65104;52.994;6.552;2023-07-08T08:07:52;4.53;;;2.50;;
76296;SDS011;65104;52.994;6.552;2023-07-08T08:10:18;4.32;;;2.80;;
76296;SDS011;65104;52.994;6.552;2023-07-08T08:12:43;3.45;;;2.40;;
76296;SDS011;65104;52.994;6.552;2023-07-08T08:15:09;5.07;;;2.50;;
76296;SDS011;65104;52.994;6.552;2023-07-08T08:17:34;2.88;;;2.53;;
76296;SDS011;65104;52.994;6.552;2023-07-08T08:20:00;2.25;;;2.05;;
76296;SDS011;65104;52.994;6.552;2023-07-08T08:22:25;3.00;;;2.50;;
76296;SDS011;65104;52.994;6.552;2023-07-08T08:24:51;3.28;;;2.47;;
76296;SDS011;65104;52.994;6.552;2023-07-08T08:27:16;3.00;;;2.30;;
76296;SDS011;65104;52.994;6.552;2023-07-08T08:29:41;2.40;;;2.20;;
76296;SDS011;65104;52.994;6.552;2023-07-08T08:32:07;3.45;;;2.58;;
76296;SDS011;65104;52.994;6.552;2023-07-08T08:34:32;3.13;;;2.33;;
76296;SDS011;65104;52.994;6.552;2023-07-08T08:36:58;3.22;;;2.63;;
76296;SDS011;65104;52.994;6.552;2023-07-08T08:39:23;6.10;;;2.83;;
76296;SDS011;65104;52.994;6.552;2023-07-08T08:41:51;5.20;;;2.58;;
76296;SDS011;65104;52.994;6.552;2023-07-08T08:44:31;5.50;;;2.30;;
76296;SDS011;65104;52.994;6.552;2023-07-08T08:49:47;3.90;;;2.40;;
76296;SDS011;65104;52.994;6.552;2023-07-08T08:52:19;3.33;;;2.30;;
76296;SDS011;65104;52.994;6.552;2023-07-08T08:54:44;3.20;;;2.90;;
76296;SDS011;65104;52.994;6.552;2023-07-08T08:57:17;3.58;;;2.58;;
76296;SDS011;65104;52.994;6.552;2023-07-08T08:59:56;3.17;;;2.50;;
76296;SDS011;65104;52.994;6.552;2023-07-08T09:02:30;2.70;;;2.05;;
76296;SDS011;65104;52.994;6.552;2023-07-08T09:05:14;3.22;;;2.28;;
76296;SDS011;65104;52.994;6.552;2023-07-08T09:13:04;3.83;;;2.25;;
76296;SDS011;65104;52.994;6.552;2023-07-08T09:15:31;3.03;;;2.20;;
76296;SDS011;65104;52.994;6.552;2023-07-08T09:17:58;2.95;;;2.67;;
76296;SDS011;65104;52.994;6.552;2023-07-08T09:20:44;2.58;;;2.30;;
76296;SDS011;65104;52.994;6.552;2023-07-08T09:23:14;3.25;;;2.42;;
76296;SDS011;65104;52.994;6.552;2023-07-08T09:28:38;2.90;;;2.30;;
76296;SDS011;65104;52.994;6.552;2023-07-08T09:31:05;3.60;;;2.45;;
76296;SDS011;65104;52.994;6.552;2023-07-08T09:33:32;2.67;;;2.47;;
76296;SDS011;65104;52.994;6.552;2023-07-08T09:35:59;3.13;;;2.45;;
76296;SDS011;65104;52.994;6.552;2023-07-08T09:38:25;2.60;;;2.10;;
76296;SDS011;65104;52.994;6.552;2023-07-08T09:40:51;2.35;;;2.13;;
76296;SDS011;65104;52.994;6.552;2023-07-08T09:43:34;2.90;;;2.65;;
76296;SDS011;65104;52.994;6.552;2023-07-08T09:46:02;4.20;;;2.58;;
76296;SDS011;65104;52.994;6.552;2023-07-08T09:48:29;2.72;;;2.50;;
76296;SDS011;65104;52.994;6.552;2023-07-08T09:50:58;3.40;;;2.88;;
76296;SDS011;65104;52.994;6.552;2023-07-08T09:53:24;4.63;;;2.47;;
76296;SDS011;65104;52.994;6.552;2023-07-08T09:55:51;3.63;;;2.85;;
76296;SDS011;65104;52.994;6.552;2023-07-08T09:58:31;3.83;;;2.65;;
76296;SDS011;65104;52.994;6.552;2023-07-08T10:01:17;3.35;;;2.58;;
76296;SDS011;65104;52.994;6.552;2023-07-08T10:03:48;4.57;;;2.45;;
76296;SDS011;65104;52.994;6.552;2023-07-08T10:06:17;4.43;;;2.75;;
76296;SDS011;65104;52.994;6.552;2023-07-08T10:08:46;2.95;;;2.63;;
76296;SDS011;65104;52.994;6.552;2023-07-08T10:14:03;4.15;;;2.35;;
76296;SDS011;65104;52.994;6.552;2023-07-08T10:16:35;3.58;;;2.90;;
76296;SDS011;65104;52.994;6.552;2023-07-08T10:19:01;3.92;;;2.50;;
76296;SDS011;65104;52.994;6.552;2023-07-08T10:26:56;3.28;;;2.60;;
76296;SDS011;65104;52.994;6.552;2023-07-08T10:29:35;3.38;;;2.65;;
76296;SDS011;65104;52.994;6.552;2023-07-08T10:35:17;3.10;;;2.30;;
76296;SDS011;65104;52.994;6.552;2023-07-08T10:40:50;3.00;;;2.70;;
76296;SDS011;65104;52.994;6.552;2023-07-08T10:43:58;3.55;;;2.60;;
76296;SDS011;65104;52.994;6.552;2023-07-08T10:52:30;3.08;;;2.78;;
76296;SDS011;65104;52.994;6.552;2023-07-08T10:58:13;3.95;;;2.58;;
76296;SDS011;65104;52.994;6.552;2023-07-08T11:06:17;3.00;;;2.70;;
76296;SDS011;65104;52.994;6.552;2023-07-08T11:08:57;2.95;;;2.65;;
76296;SDS011;65104;52.994;6.552;2023-07-08T11:14:09;4.28;;;2.92;;
76296;SDS011;65104;52.994;6.552;2023-07-08T11:17:04;3.15;;;2.85;;
76296;SDS011;65104;52.994;6.552;2023-07-08T11:19:31;3.38;;;2.75;;
76296;SDS011;65104;52.994;6.552;2023-07-08T11:22:02;2.60;;;2.40;;
76296;SDS011;65104;52.994;6.552;2023-07-08T11:24:49;3.70;;;2.85;;
76296;SDS011;65104;52.994;6.552;2023-07-08T11:27:21;2.63;;;2.28;;
76296;SDS011;65104;52.994;6.552;2023-07-08T11:32:30;3.83;;;2.45;;
76296;SDS011;65104;52.994;6.552;2023-07-08T11:34:58;3.85;;;2.67;;
76296;SDS011;65104;52.994;6.552;2023-07-08T11:37:27;2.63;;;2.30;;
76296;SDS011;65104;52.994;6.552;2023-07-08T11:40:37;3.17;;;2.53;;
76296;SDS011;65104;52.994;6.552;2023-07-08T11:42:44;3.92;;;2.78;;
76296;SDS011;65104;52.994;6.552;2023-07-08T11:45:21;4.18;;;2.65;;
76296;SDS011;65104;52.994;6.552;2023-07-08T11:47:53;3.00;;;2.35;;
76296;SDS011;65104;52.994;6.552;2023-07-08T11:50:32;2.78;;;2.53;;
76296;SDS011;65104;52.994;6.552;2023-07-08T11:53:03;3.50;;;2.63;;
76296;SDS011;65104;52.994;6.552;2023-07-08T11:58:29;3.00;;;2.35;;
76296;SDS011;65104;52.994;6.552;2023-07-08T12:01:04;2.22;;;2.03;;
76296;SDS011;65104;52.994;6.552;2023-07-08T12:03:48;3.97;;;2.78;;
76296;SDS011;65104;52.994;6.552;2023-07-08T12:08:52;2.80;;;2.58;;
76296;SDS011;65104;52.994;6.552;2023-07-08T12:11:19;4.00;;;2.40;;
76296;SDS011;65104;52.994;6.552;2023-07-08T12:13:52;2.95;;;2.10;;
76296;SDS011;65104;52.994;6.552;2023-07-08T12:16:20;3.35;;;2.95;;
76296;SDS011;65104;52.994;6.552;2023-07-08T12:18:46;4.35;;;2.45;;
76296;SDS011;65104;52.994;6.552;2023-07-08T12:21:14;2.70;;;2.50;;
76296;SDS011;65104;52.994;6.552;2023-07-08T12:23:44;3.10;;;2.50;;
76296;SDS011;65104;52.994;6.552;2023-07-08T12:26:11;2.85;;;2.55;;
76296;SDS011;65104;52.994;6.552;2023-07-08T12:28:38;3.47;;;2.65;;
76296;SDS011;65104;52.994;6.552;2023-07-08T12:31:37;3.33;;;2.88;;
76296;SDS011;65104;52.994;6.552;2023-07-08T12:33:57;4.90;;;3.70;;
76296;SDS011;65104;52.994;6.552;2023-07-08T12:36:24;2.83;;;2.47;;
76296;SDS011;65104;52.994;6.552;2023-07-08T12:38:52;3.85;;;2.55;;
76296;SDS011;65104;52.994;6.552;2023-07-08T12:41:24;3.75;;;2.55;;
76296;SDS011;65104;52.994;6.552;2023-07-08T12:43:53;3.33;;;2.72;;
76296;SDS011;65104;52.994;6.552;2023-07-08T12:46:20;4.70;;;3.13;;
76296;SDS011;65104;52.994;6.552;2023-07-08T12:48:47;3.53;;;2.47;;
76296;SDS011;65104;52.994;6.552;2023-07-08T12:51:16;4.95;;;2.70;;
76296;SDS011;65104;52.994;6.552;2023-07-08T12:56:11;5.30;;;2.75;;
76296;SDS011;65104;52.994;6.552;2023-07-08T12:58:40;4.03;;;2.58;;
76296;SDS011;65104;52.994;6.552;2023-07-08T13:01:07;3.70;;;2.78;;
76296;SDS011;65104;52.994;6.552;2023-07-08T13:03:37;3.92;;;2.53;;
76296;SDS011;65104;52.994;6.552;2023-07-08T13:06:09;3.15;;;2.80;;
76296;SDS011;65104;52.994;6.552;2023-07-08T13:08:37;3.92;;;2.95;;
76296;SDS011;65104;52.994;6.552;2023-07-08T13:11:03;5.50;;;3.10;;
76296;SDS011;65104;52.994;6.552;2023-07-08T13:13:33;3.03;;;2.53;;
76296;SDS011;65104;52.994;6.552;2023-07-08T13:16:01;4.20;;;2.65;;
76296;SDS011;65104;52.994;6.552;2023-07-08T13:21:00;5.63;;;3.08;;
76296;SDS011;65104;52.994;6.552;2023-07-08T13:23:28;6.20;;;3.10;;
76296;SDS011;65104;52.994;6.552;2023-07-08T13:25:53;3.97;;;3.10;;
76296;SDS011;65104;52.994;6.552;2023-07-08T13:31:18;5.63;;;3.50;;
76296;SDS011;65104;52.994;6.552;2023-07-08T13:33:45;4.35;;;3.17;;
76296;SDS011;65104;52.994;6.552;2023-07-08T13:36:15;6.05;;;3.20;;
76296;SDS011;65104;52.994;6.552;2023-07-08T13:38:44;6.45;;;3.40;;
76296;SDS011;65104;52.994;6.552;2023-07-08T13:41:10;4.70;;;3.15;;
76296;SDS011;65104;52.994;6.552;2023-07-08T13:43:38;5.03;;;3.58;;
76296;SDS011;65104;52.994;6.552;2023-07-08T13:46:06;3.80;;;3.17;;
76296;SDS011;65104;52.994;6.552;2023-07-08T13:48:53;3.42;;;3.00;;
76296;SDS011;65104;52.994;6.552;2023-07-08T13:51:19;4.88;;;3.38;;
76296;SDS011;65104;52.994;6.552;2023-07-08T13:53:48;4.07;;;3.00;;
76296;SDS011;65104;52.994;6.552;2023-07-08T13:59:09;5.90;;;3.63;;
76296;SDS011;65104;52.994;6.552;2023-07-08T14:01:39;5.30;;;3.30;;
76296;SDS011;65104;52.994;6.552;2023-07-08T14:04:06;5.25;;;3.50;;
76296;SDS011;65104;52.994;6.552;2023-07-08T14:06:33;6.53;;;3.33;;
76296;SDS011;65104;52.994;6.552;2023-07-08T14:09:06;4.65;;;3.05;;
76296;SDS011;65104;52.994;6.552;2023-07-08T14:11:36;5.10;;;3.60;;
76296;SDS011;65104;52.994;6.552;2023-07-08T14:14:02;5.47;;;3.22;;
76296;SDS011;65104;52.994;6.552;2023-07-08T14:16:28;5.03;;;3.58;;
76296;SDS011;65104;52.994;6.552;2023-07-08T14:18:56;4.13;;;3.30;;
76296;SDS011;65104;52.994;6.552;2023-07-08T14:21:23;7.18;;;3.47;;
76296;SDS011;65104;52.994;6.552;2023-07-08T14:23:49;6.95;;;3.58;;
76296;SDS011;65104;52.994;6.552;2023-07-08T14:26:14;3.80;;;3.40;;
76296;SDS011;65104;52.994;6.552;2023-07-08T14:28:40;3.70;;;3.05;;
76296;SDS011;65104;52.994;6.552;2023-07-08T14:31:12;4.68;;;3.22;;
76296;SDS011;65104;52.994;6.552;2023-07-08T14:33:39;5.30;;;3.63;;
76296;SDS011;65104;52.994;6.552;2023-07-08T14:36:09;5.72;;;3.83;;
76296;SDS011;65104;52.994;6.552;2023-07-08T14:38:35;4.55;;;3.50;;
76296;SDS011;65104;52.994;6.552;2023-07-08T14:41:01;5.65;;;3.22;;
76296;SDS011;65104;52.994;6.552;2023-07-08T14:43:28;3.95;;;3.30;;
76296;SDS011;65104;52.994;6.552;2023-07-08T14:45:56;4.53;;;3.33;;
76296;SDS011;65104;52.994;6.552;2023-07-08T14:48:24;6.30;;;3.70;;
76296;SDS011;65104;52.994;6.552;2023-07-08T14:53:16;5.60;;;3.30;;
76296;SDS011;65104;52.994;6.552;2023-07-08T14:55:43;7.20;;;3.70;;
76296;SDS011;65104;52.994;6.552;2023-07-08T14:58:32;6.00;;;3.88;;
76296;SDS011;65104;52.994;6.552;2023-07-08T15:00:59;4.63;;;4.15;;
76296;SDS011;65104;52.994;6.552;2023-07-08T15:03:27;5.00;;;3.17;;
76296;SDS011;65104;52.994;6.552;2023-07-08T15:05:53;4.63;;;3.33;;
76296;SDS011;65104;52.994;6.552;2023-07-08T15:08:19;5.10;;;3.33;;
76296;SDS011;65104;52.994;6.552;2023-07-08T15:10:46;4.65;;;3.50;;
76296;SDS011;65104;52.994;6.552;2023-07-08T15:13:14;5.85;;;3.60;;
76296;SDS011;65104;52.994;6.552;2023-07-08T15:15:41;4.03;;;2.80;;
76296;SDS011;65104;52.994;6.552;2023-07-08T15:18:11;5.50;;;3.67;;
76296;SDS011;65104;52.994;6.552;2023-07-08T15:20:38;5.22;;;3.00;;
76296;SDS011;65104;52.994;6.552;2023-07-08T15:23:04;5.07;;;3.58;;
76296;SDS011;65104;52.994;6.552;2023-07-08T15:25:29;5.28;;;3.50;;
76296;SDS011;65104;52.994;6.552;2023-07-08T15:27:56;5.47;;;3.40;;
76296;SDS011;65104;52.994;6.552;2023-07-08T15:30:23;6.20;;;2.97;;
76296;SDS011;65104;52.994;6.552;2023-07-08T15:32:49;5.97;;;3.55;;
76296;SDS011;65104;52.994;6.552;2023-07-08T15:35:17;4.82;;;3.50;;
76296;SDS011;65104;52.994;6.552;2023-07-08T15:37:44;5.20;;;3.28;;
76296;SDS011;65104;52.994;6.552;2023-07-08T15:40:14;5.55;;;3.22;;
76296;SDS011;65104;52.994;6.552;2023-07-08T15:42:42;4.38;;;3.20;;
76296;SDS011;65104;52.994;6.552;2023-07-08T15:45:24;6.53;;;3.70;;
76296;SDS011;65104;52.994;6.552;2023-07-08T15:48:12;5.88;;;3.28;;
76296;SDS011;65104;52.994;6.552;2023-07-08T15:50:38;4.82;;;3.40;;
76296;SDS011;65104;52.994;6.552;2023-07-08T15:53:04;5.25;;;3.40;;
76296;SDS011;65104;52.994;6.552;2023-07-08T15:55:30;5.50;;;3.75;;
76296;SDS011;65104;52.994;6.552;2023-07-08T15:57:59;4.22;;;2.95;;
76296;SDS011;65104;52.994;6.552;2023-07-08T16:00:28;6.82;;;3.50;;
76296;SDS011;65104;52.994;6.552;2023-07-08T16:02:56;3.83;;;3.25;;
76296;SDS011;65104;52.994;6.552;2023-07-08T16:05:24;5.60;;;3.53;;
76296;SDS011;65104;52.994;6.552;2023-07-08T16:10:16;5.50;;;3.80;;
76296;SDS011;65104;52.994;6.552;2023-07-08T16:12:43;4.82;;;3.70;;
76296;SDS011;65104;52.994;6.552;2023-07-08T16:15:14;6.22;;;3.53;;
76296;SDS011;65104;52.994;6.552;2023-07-08T16:17:41;4.53;;;3.00;;